createdAt,value
2022-09-20T00:00:28.106Z,30.82
2022-09-20T00:03:31.114Z,30.75
2022-09-20T00:06:35.019Z,30.64
2022-09-20T00:09:38.305Z,30.78
2022-09-20T00:12:41.361Z,30.76
2022-09-20T00:15:46.313Z,30.36
2022-09-20T00:18:55.966Z,30.51
2022-09-20T00:21:59.101Z,29.74
2022-09-20T00:25:02.404Z,29.90
2022-09-20T00:28:06.089Z,29.86
2022-09-20T00:31:09.171Z,29.88
2022-09-20T00:34:13.066Z,29.58
2022-09-20T00:37:16.171Z,29.70
2022-09-20T00:40:24.852Z,29.66
2022-09-20T00:43:42.684Z,29.86
2022-09-20T00:46:46.378Z,29.29
2022-09-20T00:49:51.060Z,29.27
2022-09-20T00:53:20.020Z,29.16
2022-09-20T00:56:26.983Z,28.76
2022-09-20T00:59:41.655Z,28.91
2022-09-20T01:02:50.318Z,28.75
2022-09-20T01:05:54.314Z,28.57
2022-09-20T01:08:59.688Z,28.63
2022-09-20T01:12:05.926Z,28.71
2022-09-20T01:15:10.619Z,28.98
2022-09-20T01:18:14.461Z,28.84
2022-09-20T01:21:18.329Z,28.41
2022-09-20T01:24:24.227Z,28.57
2022-09-20T01:27:48.970Z,28.66
2022-09-20T01:31:08.307Z,28.77
2022-09-20T01:34:19.637Z,28.77
2022-09-20T01:37:28.570Z,28.69
2022-09-20T01:40:52.117Z,28.24
2022-09-20T01:44:13.820Z,28.25
2022-09-20T01:47:45.152Z,28.36
2022-09-20T01:51:25.239Z,27.96
2022-09-20T01:55:05.775Z,28.28
2022-09-20T01:58:26.856Z,28.36
2022-09-20T02:02:11.153Z,28.27
2022-09-20T02:05:48.581Z,28.07
2022-09-20T02:09:15.190Z,28.31
2022-09-20T02:12:18.175Z,28.05
2022-09-20T02:15:27.358Z,28.08
2022-09-20T02:19:07.159Z,27.89
2022-09-20T02:22:19.680Z,28.01
2022-09-20T02:25:50.814Z,27.99
2022-09-20T02:29:21.381Z,27.51
2022-09-20T02:32:58.357Z,27.76
2022-09-20T02:36:10.359Z,27.54
2022-09-20T02:39:21.436Z,27.50
2022-09-20T02:43:00.938Z,27.75
2022-09-20T02:46:13.735Z,27.61
2022-09-20T02:49:53.819Z,27.31
2022-09-20T02:53:21.473Z,27.73
2022-09-20T02:56:44.147Z,27.57
2022-09-20T02:59:56.105Z,27.50
2022-09-20T03:03:10.270Z,27.02
2022-09-20T03:06:31.117Z,26.94
2022-09-20T03:09:43.085Z,27.34
2022-09-20T03:12:51.994Z,27.28
2022-09-20T03:15:55.102Z,27.20
2022-09-20T03:19:07.272Z,27.09
2022-09-20T03:22:37.862Z,27.00
2022-09-20T03:26:08.713Z,26.78
2022-09-20T03:29:26.923Z,26.68
2022-09-20T03:32:46.348Z,26.87
2022-09-20T03:36:10.413Z,26.78
2022-09-20T03:39:46.993Z,26.84
2022-09-20T03:42:53.027Z,26.72
2022-09-20T03:46:25.121Z,26.91
2022-09-20T03:49:44.499Z,26.73
2022-09-20T03:53:16.692Z,26.58
2022-09-20T03:56:31.594Z,26.64
2022-09-20T03:59:53.176Z,26.62
2022-09-20T04:03:23.621Z,26.49
2022-09-20T04:06:51.619Z,26.08
2022-09-20T04:09:57.512Z,26.51
2022-09-20T04:13:38.978Z,26.58
2022-09-20T04:17:05.193Z,26.28
2022-09-20T04:20:36.091Z,26.42
2022-09-20T04:23:56.171Z,26.75
2022-09-20T04:27:02.342Z,26.67
2022-09-20T04:30:08.587Z,26.40
2022-09-20T04:33:24.315Z,26.23
2022-09-20T04:36:50.214Z,26.25
2022-09-20T04:40:23.553Z,26.36
2022-09-20T04:43:35.833Z,26.24
2022-09-20T04:46:55.941Z,26.30
2022-09-20T04:50:31.790Z,26.39
2022-09-20T04:53:55.229Z,26.35
2022-09-20T04:57:35.479Z,26.04
2022-09-20T05:01:02.851Z,26.14
2022-09-20T05:04:27.254Z,26.05
2022-09-20T05:07:56.616Z,25.93
2022-09-20T05:11:39.459Z,25.71
2022-09-20T05:15:06.894Z,25.46
2022-09-20T05:18:12.637Z,25.56
2022-09-20T05:21:53.852Z,25.74
2022-09-20T05:25:01.544Z,25.96
2022-09-20T05:28:16.887Z,25.89
2022-09-20T05:31:49.686Z,25.60
2022-09-20T05:35:04.175Z,25.48
2022-09-20T05:38:49.027Z,25.79
2022-09-20T05:42:02.170Z,25.65
2022-09-20T05:45:17.357Z,25.35
2022-09-20T05:48:47.832Z,25.46
2022-09-20T05:52:00.201Z,25.53
2022-09-20T05:55:16.979Z,25.60
2022-09-20T05:58:45.801Z,25.30
2022-09-20T06:02:26.034Z,24.90
2022-09-20T06:05:47.358Z,25.51
2022-09-20T06:09:11.802Z,25.65
2022-09-20T06:12:46.504Z,25.69
2022-09-20T06:15:56.991Z,25.80
2022-09-20T06:19:00.106Z,25.75
2022-09-20T06:22:13.041Z,25.65
2022-09-20T06:25:25.267Z,25.66
2022-09-20T06:28:31.996Z,25.56
2022-09-20T06:31:35.221Z,25.12
2022-09-20T06:34:38.377Z,25.08
2022-09-20T06:37:55.760Z,24.83
2022-09-20T06:40:59.006Z,25.11
2022-09-20T06:44:02.791Z,25.07
2022-09-20T06:47:06.020Z,25.03
2022-09-20T06:50:16.495Z,24.93
2022-09-20T06:53:33.075Z,25.22
2022-09-20T06:56:36.655Z,25.04
2022-09-20T06:59:39.719Z,25.09
2022-09-20T07:02:43.504Z,24.75
2022-09-20T07:05:46.998Z,25.12
2022-09-20T07:08:50.859Z,25.10
2022-09-20T07:11:53.854Z,25.13
2022-09-20T07:14:56.943Z,25.19
2022-09-20T07:18:00.119Z,24.91
2022-09-20T07:21:03.566Z,24.96
2022-09-20T07:24:06.611Z,24.64
2022-09-20T07:27:11.704Z,24.92
2022-09-20T07:30:16.194Z,24.79
2022-09-20T07:33:19.291Z,24.87
2022-09-20T07:36:22.589Z,24.94
2022-09-20T07:39:26.808Z,24.77
2022-09-20T07:42:30.012Z,24.76
2022-09-20T07:45:34.084Z,24.50
2022-09-20T07:48:37.255Z,24.55
2022-09-20T07:51:40.324Z,24.56
2022-09-20T07:54:43.347Z,24.84
2022-09-20T07:57:46.393Z,24.61
2022-09-20T08:00:56.899Z,24.76
2022-09-20T08:04:01.842Z,24.64
2022-09-20T08:07:04.899Z,24.50
2022-09-20T08:10:08.465Z,24.84
2022-09-20T08:16:42.927Z,24.71
2022-09-20T08:19:48.755Z,24.14
2022-09-20T08:23:12.756Z,24.34
2022-09-20T08:26:18.383Z,24.33
2022-09-20T08:29:21.424Z,24.61
2022-09-20T08:32:24.541Z,24.45
2022-09-20T08:35:28.658Z,24.72
2022-09-20T08:42:44.564Z,24.82
2022-09-20T08:45:50.881Z,24.65
2022-09-20T08:48:54.977Z,24.39
2022-09-20T08:52:00.555Z,24.68
2022-09-20T08:55:07.660Z,24.38
2022-09-20T08:58:12.596Z,24.41
2022-09-20T09:01:23.015Z,24.19
2022-09-20T09:04:35.653Z,24.08
2022-09-20T09:07:38.748Z,24.26
2022-09-20T09:10:43.088Z,24.31
2022-09-20T09:14:00.283Z,24.51
2022-09-20T09:17:03.326Z,24.56
2022-09-20T09:20:25.440Z,24.54
2022-09-20T09:23:28.774Z,24.47
2022-09-20T09:26:40.333Z,24.20
2022-09-20T09:29:51.779Z,24.30
2022-09-20T09:33:26.549Z,24.33
2022-09-20T09:36:29.577Z,24.21
2022-09-20T09:39:35.151Z,24.14
2022-09-20T09:42:38.143Z,23.98
2022-09-20T09:45:42.317Z,24.02
2022-09-20T09:48:46.124Z,24.08
2022-09-20T09:52:03.029Z,24.39
2022-09-20T09:55:06.234Z,24.24
2022-09-20T09:58:32.455Z,24.10
2022-09-20T10:01:52.536Z,23.96
2022-09-20T10:05:14.266Z,23.93
2022-09-20T10:08:40.813Z,24.09
2022-09-20T10:11:43.829Z,24.06
2022-09-20T10:15:04.961Z,23.43
2022-09-20T10:18:13.785Z,23.61
2022-09-20T10:21:26.702Z,23.48
2022-09-20T10:24:57.858Z,23.63
2022-09-20T10:28:22.528Z,23.86
2022-09-20T10:31:47.092Z,23.93
2022-09-20T10:35:19.527Z,24.09
2022-09-20T10:38:37.780Z,23.99
2022-09-20T10:41:59.233Z,24.08
2022-09-20T10:45:53.365Z,23.78
2022-09-20T10:48:48.775Z,23.78
2022-09-20T10:52:01.660Z,23.95
2022-09-20T10:55:21.965Z,24.07
2022-09-20T10:58:42.960Z,23.87
2022-09-20T11:02:10.201Z,23.97
2022-09-20T11:05:19.378Z,23.91
2022-09-20T11:08:24.820Z,23.81
2022-09-20T11:11:32.015Z,23.56
2022-09-20T11:14:41.236Z,23.99
2022-09-20T11:17:52.413Z,23.65
2022-09-20T11:21:31.994Z,23.74
2022-09-20T11:24:38.999Z,23.67
2022-09-20T11:27:47.792Z,23.68
2022-09-20T11:31:26.932Z,23.45
2022-09-20T11:34:58.076Z,23.15
2022-09-20T11:38:20.628Z,23.19
2022-09-20T11:41:31.587Z,23.34
2022-09-20T11:44:42.211Z,23.34
2022-09-20T11:47:57.178Z,23.47
2022-09-20T11:51:25.976Z,23.41
2022-09-20T11:54:49.870Z,23.52
2022-09-20T11:58:07.078Z,23.48
2022-09-20T12:01:14.521Z,23.60
2022-09-20T12:04:38.614Z,23.69
2022-09-20T12:07:43.794Z,23.78
2022-09-20T12:10:59.402Z,23.78
2022-09-20T12:14:31.438Z,23.75
2022-09-20T12:17:51.273Z,23.54
2022-09-20T12:20:59.461Z,23.52
2022-09-20T12:24:17.211Z,23.74
2022-09-20T12:27:29.259Z,24.08
2022-09-20T12:30:32.607Z,24.08
2022-09-20T12:34:08.750Z,24.23
2022-09-20T12:37:12.051Z,24.08
2022-09-20T12:40:17.121Z,24.20
2022-09-20T12:43:22.248Z,24.24
2022-09-20T12:46:34.058Z,24.16
2022-09-20T12:49:37.183Z,24.21
2022-09-20T12:52:43.465Z,24.41
2022-09-20T12:56:07.458Z,24.57
2022-09-20T12:59:36.817Z,24.48
2022-09-20T13:02:52.190Z,24.66
2022-09-20T13:06:07.666Z,25.13
2022-09-20T13:09:11.160Z,25.39
2022-09-20T13:12:14.266Z,25.70
2022-09-20T13:15:21.246Z,25.73
2022-09-20T13:18:25.279Z,25.79
2022-09-20T13:21:28.901Z,26.07
2022-09-20T13:24:48.298Z,25.97
2022-09-20T13:27:53.689Z,26.00
2022-09-20T13:31:21.428Z,26.20
2022-09-20T13:34:26.107Z,26.58
2022-09-20T13:37:29.248Z,26.58
2022-09-20T13:40:51.938Z,26.74
2022-09-20T13:43:55.013Z,27.23
2022-09-20T13:46:58.186Z,27.42
2022-09-20T13:50:16.421Z,27.43
2022-09-20T13:53:39.440Z,27.79
2022-09-20T13:56:42.549Z,27.80
2022-09-20T13:59:47.060Z,28.07
2022-09-20T14:02:50.546Z,28.22
2022-09-20T14:06:10.391Z,28.44
2022-09-20T14:09:22.698Z,28.50
2022-09-20T14:12:26.830Z,28.70
2022-09-20T14:15:35.110Z,28.96
2022-09-20T14:18:40.904Z,28.90
2022-09-20T14:21:44.248Z,28.96
2022-09-20T14:24:59.014Z,29.13
2022-09-20T14:28:28.838Z,29.36
2022-09-20T14:31:33.466Z,29.64
2022-09-20T14:34:38.199Z,29.67
2022-09-20T14:37:49.730Z,29.72
2022-09-20T14:40:53.098Z,29.66
2022-09-20T14:43:58.607Z,29.45
2022-09-20T14:47:15.310Z,30.01
2022-09-20T14:50:36.305Z,30.16
2022-09-20T14:53:39.567Z,30.22
2022-09-20T14:56:48.279Z,30.51
2022-09-20T14:59:55.716Z,30.36
2022-09-20T15:03:06.788Z,30.34
2022-09-20T15:06:13.783Z,30.30
2022-09-20T15:09:16.899Z,30.77
2022-09-20T15:12:21.446Z,30.64
2022-09-20T15:15:24.523Z,30.52
2022-09-20T15:18:29.271Z,31.00
2022-09-20T15:21:32.948Z,30.73
2022-09-20T15:24:35.966Z,31.01
2022-09-20T15:27:39.373Z,31.37
2022-09-20T15:30:42.890Z,31.34
2022-09-20T15:33:45.934Z,31.42
2022-09-20T15:36:49.756Z,31.70
2022-09-20T15:39:53.253Z,32.00
2022-09-20T15:42:57.115Z,31.77
2022-09-20T15:46:02.131Z,32.54
2022-09-20T15:49:05.677Z,32.88
2022-09-20T15:52:08.885Z,32.78
2022-09-20T15:55:12.088Z,32.54
2022-09-20T15:58:15.163Z,32.59
2022-09-20T16:01:19.617Z,32.46
2022-09-20T16:04:22.807Z,33.01
2022-09-20T16:07:26.331Z,32.49
2022-09-20T16:10:29.351Z,32.71
2022-09-20T16:13:32.584Z,33.18
2022-09-20T16:16:40.341Z,33.43
2022-09-20T16:19:44.264Z,33.98
2022-09-20T16:22:47.544Z,33.52
2022-09-20T16:25:50.529Z,33.12
2022-09-20T16:28:54.338Z,33.51
2022-09-20T16:31:58.195Z,33.44
2022-09-20T16:35:01.298Z,33.70
2022-09-20T16:38:09.049Z,33.93
2022-09-20T16:41:12.098Z,33.04
2022-09-20T16:44:18.180Z,34.01
2022-09-20T16:47:21.267Z,33.75
2022-09-20T16:50:24.389Z,33.73
2022-09-20T16:53:27.866Z,33.58
2022-09-20T16:56:32.860Z,33.90
2022-09-20T16:59:36.060Z,34.23
2022-09-20T17:02:39.103Z,34.13
2022-09-20T17:05:42.207Z,34.38
2022-09-20T17:08:45.358Z,34.53
2022-09-20T17:11:50.143Z,35.03
2022-09-20T17:14:53.229Z,34.70
2022-09-20T17:17:56.327Z,35.28
2022-09-20T17:21:04.548Z,34.85
2022-09-20T17:24:08.110Z,34.22
2022-09-20T17:27:11.313Z,34.29
2022-09-20T17:30:14.692Z,33.06
2022-09-20T17:33:19.749Z,34.35
2022-09-20T17:36:23.054Z,34.56
2022-09-20T17:39:26.092Z,34.79
2022-09-20T17:42:29.224Z,34.91
2022-09-20T17:45:36.354Z,35.04
2022-09-20T17:48:40.557Z,34.31
2022-09-20T17:51:45.776Z,34.96
2022-09-20T17:54:48.852Z,34.96
2022-09-20T17:57:53.381Z,35.24
2022-09-20T18:01:03.525Z,35.36
2022-09-20T18:04:07.439Z,34.44
2022-09-20T18:07:10.647Z,34.45
2022-09-20T18:10:13.748Z,35.01
2022-09-20T18:13:16.965Z,35.34
2022-09-20T18:16:20.195Z,35.13
2022-09-20T18:19:23.328Z,35.23
2022-09-20T18:22:26.365Z,34.89
2022-09-20T18:25:32.086Z,35.10
2022-09-20T18:28:35.271Z,35.24
2022-09-20T18:31:43.403Z,34.92
2022-09-20T18:34:46.477Z,35.12
2022-09-20T18:37:50.234Z,34.42
2022-09-20T18:41:01.327Z,34.42
2022-09-20T18:44:06.207Z,34.22
2022-09-20T18:47:12.326Z,34.59
2022-09-20T18:50:15.630Z,34.51
2022-09-20T18:53:18.693Z,33.90
2022-09-20T18:56:28.718Z,33.31
2022-09-20T18:59:31.915Z,34.23
2022-09-20T19:02:56.023Z,34.16
2022-09-20T19:06:06.127Z,34.12
2022-09-20T19:09:17.124Z,34.24
2022-09-20T19:12:38.608Z,34.64
2022-09-20T19:16:07.320Z,34.86
2022-09-20T19:19:28.501Z,34.81
2022-09-20T19:23:28.410Z,34.59
2022-09-20T19:26:33.082Z,34.23
2022-09-20T19:29:36.667Z,34.22
2022-09-20T19:32:39.937Z,34.13
2022-09-20T19:35:49.487Z,33.77
2022-09-20T19:39:04.932Z,33.97
2022-09-20T19:42:52.665Z,34.20
2022-09-20T19:46:17.434Z,33.79
2022-09-20T19:49:40.686Z,33.95
2022-09-20T19:52:45.088Z,33.92
2022-09-20T19:55:51.055Z,33.79
2022-09-20T19:58:55.880Z,33.70
2022-09-20T20:01:59.362Z,33.44
2022-09-20T20:05:02.911Z,33.30
2022-09-20T20:08:23.141Z,33.68
2022-09-20T20:11:47.836Z,33.85
2022-09-20T20:15:05.887Z,33.77
2022-09-20T20:18:32.187Z,33.68
2022-09-20T20:21:47.246Z,33.66
2022-09-20T20:24:52.632Z,33.58
2022-09-20T20:27:58.295Z,33.73
2022-09-20T20:31:02.516Z,33.85
2022-09-20T20:34:05.962Z,33.82
2022-09-20T20:37:10.174Z,33.63
2022-09-20T20:40:14.150Z,33.73
2022-09-20T20:43:17.174Z,33.88
2022-09-20T20:46:20.427Z,33.94
2022-09-20T20:49:23.854Z,33.87
2022-09-20T20:52:26.879Z,33.50
2022-09-20T20:55:29.922Z,33.95
2022-09-20T20:58:33.321Z,34.02
2022-09-20T21:01:40.926Z,33.94
2022-09-20T21:04:44.470Z,34.18
2022-09-20T21:07:51.828Z,34.44
2022-09-20T21:11:01.255Z,34.19
2022-09-20T21:14:05.849Z,34.27
2022-09-20T21:17:08.972Z,34.51
2022-09-20T21:20:12.227Z,34.27
2022-09-20T21:23:15.314Z,33.77
2022-09-20T21:26:19.328Z,33.23
2022-09-20T21:29:22.428Z,33.75
2022-09-20T21:32:26.961Z,34.14
2022-09-20T21:35:30.169Z,34.44
2022-09-20T21:38:33.284Z,34.10
2022-09-20T21:41:38.400Z,34.24
2022-09-20T21:44:41.429Z,34.06
2022-09-20T21:47:44.521Z,34.07
2022-09-20T21:50:47.550Z,33.77
2022-09-20T21:53:53.643Z,33.68
2022-09-20T21:56:56.731Z,33.68
2022-09-20T21:59:59.812Z,33.61
2022-09-20T22:03:03.218Z,33.49
2022-09-20T22:06:13.585Z,33.72
2022-09-20T22:09:18.561Z,33.83
2022-09-20T22:12:23.995Z,33.76
2022-09-20T22:15:27.402Z,33.43
2022-09-20T22:18:34.290Z,33.77
2022-09-20T22:21:43.490Z,33.49
2022-09-20T22:24:46.613Z,33.87
2022-09-20T22:27:49.794Z,34.01
2022-09-20T22:30:52.919Z,34.04
2022-09-20T22:33:58.186Z,36.08
2022-09-20T22:37:01.270Z,34.93
2022-09-20T22:40:04.649Z,33.58
2022-09-20T22:43:07.819Z,33.57
2022-09-20T22:46:13.778Z,33.42
2022-09-20T22:49:16.881Z,33.20
2022-09-20T22:52:20.029Z,32.87
2022-09-20T22:55:23.156Z,32.87
2022-09-20T22:58:26.230Z,32.75
2022-09-20T23:01:41.249Z,32.54
2022-09-20T23:04:46.347Z,32.63
2022-09-20T23:07:52.627Z,32.85
2022-09-20T23:11:05.041Z,32.95
2022-09-20T23:14:08.314Z,32.37
2022-09-20T23:17:11.516Z,32.74
2022-09-20T23:20:14.976Z,32.62
2022-09-20T23:23:18.056Z,32.41
2022-09-20T23:26:21.306Z,32.35
2022-09-20T23:29:24.320Z,32.14
2022-09-20T23:32:27.914Z,32.34
2022-09-20T23:35:31.109Z,31.67
2022-09-20T23:38:34.204Z,31.23
2022-09-20T23:41:38.037Z,31.24
2022-09-20T23:44:41.395Z,31.59
2022-09-20T23:47:48.450Z,31.46
2022-09-20T23:50:51.572Z,31.30
2022-09-20T23:53:54.813Z,31.23
2022-09-20T23:56:57.885Z,31.28
